sensor_id;sensor_type;location;lat;lon;timestamp;temperature;humidity
83964;DHT22;73994;50.868;5.420;2024-03-08T00:02:07;5.90;58.20
83964;DHT22;73994;50.868;5.420;2024-03-08T00:04:33;5.80;58.30
83964;DHT22;73994;50.868;5.420;2024-03-08T00:06:59;5.80;58.40
83964;DHT22;73994;50.868;5.420;2024-03-08T00:09:25;5.70;58.40
83964;DHT22;73994;50.868;5.420;2024-03-08T00:11:52;5.70;58.40
83964;DHT22;73994;50.868;5.420;2024-03-08T00:14:18;5.70;58.50
83964;DHT22;73994;50.868;5.420;2024-03-08T00:16:44;5.60;58.40
83964;DHT22;73994;50.868;5.420;2024-03-08T00:19:10;5.60;58.30
83964;DHT22;73994;50.868;5.420;2024-03-08T00:21:35;5.60;58.40
83964;DHT22;73994;50.868;5.420;2024-03-08T00:24:01;5.50;58.40
83964;DHT22;73994;50.868;5.420;2024-03-08T00:26:27;5.50;58.50
83964;DHT22;73994;50.868;5.420;2024-03-08T00:28:54;5.50;58.30
83964;DHT22;73994;50.868;5.420;2024-03-08T00:31:19;5.50;58.50
83964;DHT22;73994;50.868;5.420;2024-03-08T00:33:45;5.50;58.30
83964;DHT22;73994;50.868;5.420;2024-03-08T00:36:11;5.40;58.30
83964;DHT22;73994;50.868;5.420;2024-03-08T00:38:37;5.40;58.30
83964;DHT22;73994;50.868;5.420;2024-03-08T00:41:03;5.30;58.30
83964;DHT22;73994;50.868;5.420;2024-03-08T00:43:28;5.30;58.60
83964;DHT22;73994;50.868;5.420;2024-03-08T00:45:57;5.30;58.50
83964;DHT22;73994;50.868;5.420;2024-03-08T00:48:23;5.20;58.60
83964;DHT22;73994;50.868;5.420;2024-03-08T00:50:49;5.20;58.70
83964;DHT22;73994;50.868;5.420;2024-03-08T00:53:14;5.10;58.80
83964;DHT22;73994;50.868;5.420;2024-03-08T00:55:40;5.10;58.80
83964;DHT22;73994;50.868;5.420;2024-03-08T00:58:06;5.10;59.10
83964;DHT22;73994;50.868;5.420;2024-03-08T01:00:31;5.00;59.00
83964;DHT22;73994;50.868;5.420;2024-03-08T01:02:57;5.00;58.90
83964;DHT22;73994;50.868;5.420;2024-03-08T01:05:24;5.00;59.10
83964;DHT22;73994;50.868;5.420;2024-03-08T01:07:50;5.00;59.10
83964;DHT22;73994;50.868;5.420;2024-03-08T01:10:16;4.90;59.00
83964;DHT22;73994;50.868;5.420;2024-03-08T01:12:42;4.90;58.80
83964;DHT22;73994;50.868;5.420;2024-03-08T01:15:09;4.90;59.10
83964;DHT22;73994;50.868;5.420;2024-03-08T01:17:36;4.90;59.10
83964;DHT22;73994;50.868;5.420;2024-03-08T01:20:02;4.80;59.10
83964;DHT22;73994;50.868;5.420;2024-03-08T01:22:28;4.80;59.30
83964;DHT22;73994;50.868;5.420;2024-03-08T01:24:55;4.70;59.10
83964;DHT22;73994;50.868;5.420;2024-03-08T01:27:21;4.70;59.50
83964;DHT22;73994;50.868;5.420;2024-03-08T01:29:47;4.70;59.50
83964;DHT22;73994;50.868;5.420;2024-03-08T01:32:13;4.70;59.50
83964;DHT22;73994;50.868;5.420;2024-03-08T01:34:40;4.70;59.50
83964;DHT22;73994;50.868;5.420;2024-03-08T01:37:05;4.60;59.50
83964;DHT22;73994;50.868;5.420;2024-03-08T01:39:32;4.60;59.60
83964;DHT22;73994;50.868;5.420;2024-03-08T01:41:58;4.50;59.70
83964;DHT22;73994;50.868;5.420;2024-03-08T01:44:24;4.50;59.70
83964;DHT22;73994;50.868;5.420;2024-03-08T01:46:51;4.50;59.70
83964;DHT22;73994;50.868;5.420;2024-03-08T01:49:19;4.50;59.60
83964;DHT22;73994;50.868;5.420;2024-03-08T01:51:47;4.50;59.70
83964;DHT22;73994;50.868;5.420;2024-03-08T01:54:15;4.40;59.80
83964;DHT22;73994;50.868;5.420;2024-03-08T01:56:42;4.40;60.00
83964;DHT22;73994;50.868;5.420;2024-03-08T01:59:09;4.40;60.30
83964;DHT22;73994;50.868;5.420;2024-03-08T02:01:35;4.30;60.20
83964;DHT22;73994;50.868;5.420;2024-03-08T02:04:01;4.30;60.20
83964;DHT22;73994;50.868;5.420;2024-03-08T02:06:27;4.30;60.10
83964;DHT22;73994;50.868;5.420;2024-03-08T02:08:52;4.30;60.10
83964;DHT22;73994;50.868;5.420;2024-03-08T02:11:19;4.20;60.30
83964;DHT22;73994;50.868;5.420;2024-03-08T02:13:46;4.20;60.30
83964;DHT22;73994;50.868;5.420;2024-03-08T02:16:12;4.20;60.30
83964;DHT22;73994;50.868;5.420;2024-03-08T02:18:38;4.20;60.50
83964;DHT22;73994;50.868;5.420;2024-03-08T02:21:05;4.20;60.60
83964;DHT22;73994;50.868;5.420;2024-03-08T02:23:32;4.10;60.50
83964;DHT22;73994;50.868;5.420;2024-03-08T02:25:58;4.10;60.40
83964;DHT22;73994;50.868;5.420;2024-03-08T02:28:24;4.10;60.50
83964;DHT22;73994;50.868;5.420;2024-03-08T02:30:54;4.10;60.40
83964;DHT22;73994;50.868;5.420;2024-03-08T02:33:21;4.10;60.40
83964;DHT22;73994;50.868;5.420;2024-03-08T02:35:48;4.10;60.40
83964;DHT22;73994;50.868;5.420;2024-03-08T02:38:19;4.10;60.80
83964;DHT22;73994;50.868;5.420;2024-03-08T02:40:46;4.00;60.70
83964;DHT22;73994;50.868;5.420;2024-03-08T02:43:13;4.00;60.70
83964;DHT22;73994;50.868;5.420;2024-03-08T02:45:45;4.00;60.70
83964;DHT22;73994;50.868;5.420;2024-03-08T02:48:12;4.00;60.80
83964;DHT22;73994;50.868;5.420;2024-03-08T02:50:38;3.90;60.80
83964;DHT22;73994;50.868;5.420;2024-03-08T02:53:08;3.90;60.90
83964;DHT22;73994;50.868;5.420;2024-03-08T02:55:34;3.90;61.00
83964;DHT22;73994;50.868;5.420;2024-03-08T02:58:02;3.90;61.10
83964;DHT22;73994;50.868;5.420;2024-03-08T03:00:29;3.90;61.10
83964;DHT22;73994;50.868;5.420;2024-03-08T03:02:56;3.90;61.00
83964;DHT22;73994;50.868;5.420;2024-03-08T03:05:23;3.90;61.00
83964;DHT22;73994;50.868;5.420;2024-03-08T03:07:49;3.90;61.00
83964;DHT22;73994;50.868;5.420;2024-03-08T03:10:18;3.80;61.30
83964;DHT22;73994;50.868;5.420;2024-03-08T03:12:45;3.80;61.00
83964;DHT22;73994;50.868;5.420;2024-03-08T03:15:11;3.70;61.40
83964;DHT22;73994;50.868;5.420;2024-03-08T03:17:37;3.70;61.30
83964;DHT22;73994;50.868;5.420;2024-03-08T03:20:07;3.70;61.30
83964;DHT22;73994;50.868;5.420;2024-03-08T03:22:38;3.70;61.40
83964;DHT22;73994;50.868;5.420;2024-03-08T03:25:04;3.70;61.40
83964;DHT22;73994;50.868;5.420;2024-03-08T03:27:32;3.70;61.50
83964;DHT22;73994;50.868;5.420;2024-03-08T03:29:57;3.60;61.50
83964;DHT22;73994;50.868;5.420;2024-03-08T03:32:23;3.60;61.50
83964;DHT22;73994;50.868;5.420;2024-03-08T03:34:49;3.60;61.50
83964;DHT22;73994;50.868;5.420;2024-03-08T03:37:21;3.60;61.70
83964;DHT22;73994;50.868;5.420;2024-03-08T03:39:46;3.50;61.80
83964;DHT22;73994;50.868;5.420;2024-03-08T03:42:18;3.50;62.00
83964;DHT22;73994;50.868;5.420;2024-03-08T03:44:47;3.50;61.90
83964;DHT22;73994;50.868;5.420;2024-03-08T03:47:13;3.50;62.00
83964;DHT22;73994;50.868;5.420;2024-03-08T03:49:43;3.50;62.00
83964;DHT22;73994;50.868;5.420;2024-03-08T03:52:09;3.50;61.80
83964;DHT22;73994;50.868;5.420;2024-03-08T03:54:36;3.50;61.80
83964;DHT22;73994;50.868;5.420;2024-03-08T03:57:01;3.50;61.90
83964;DHT22;73994;50.868;5.420;2024-03-08T03:59:28;3.50;61.80
83964;DHT22;73994;50.868;5.420;2024-03-08T04:01:54;3.40;62.20
83964;DHT22;73994;50.868;5.420;2024-03-08T04:04:23;3.40;62.10
83964;DHT22;73994;50.868;5.420;2024-03-08T04:06:50;3.40;62.00
83964;DHT22;73994;50.868;5.420;2024-03-08T04:09:16;3.40;62.00
83964;DHT22;73994;50.868;5.420;2024-03-08T04:11:45;3.30;62.00
83964;DHT22;73994;50.868;5.420;2024-03-08T04:14:10;3.30;62.10
83964;DHT22;73994;50.868;5.420;2024-03-08T04:16:37;3.30;62.30
83964;DHT22;73994;50.868;5.420;2024-03-08T04:19:03;3.30;62.20
83964;DHT22;73994;50.868;5.420;2024-03-08T04:21:32;3.30;62.50
83964;DHT22;73994;50.868;5.420;2024-03-08T04:23:58;3.30;62.50
83964;DHT22;73994;50.868;5.420;2024-03-08T04:26:24;3.30;62.20
83964;DHT22;73994;50.868;5.420;2024-03-08T04:28:51;3.30;62.40
83964;DHT22;73994;50.868;5.420;2024-03-08T04:31:17;3.20;62.70
83964;DHT22;73994;50.868;5.420;2024-03-08T04:33:42;3.20;62.70
83964;DHT22;73994;50.868;5.420;2024-03-08T04:36:09;3.10;62.70
83964;DHT22;73994;50.868;5.420;2024-03-08T04:38:41;3.10;62.80
83964;DHT22;73994;50.868;5.420;2024-03-08T04:41:07;3.10;62.90
83964;DHT22;73994;50.868;5.420;2024-03-08T04:43:34;3.10;62.80
83964;DHT22;73994;50.868;5.420;2024-03-08T04:46:00;3.10;62.90
83964;DHT22;73994;50.868;5.420;2024-03-08T04:48:25;3.10;62.80
83964;DHT22;73994;50.868;5.420;2024-03-08T04:50:54;3.10;62.80
83964;DHT22;73994;50.868;5.420;2024-03-08T04:53:21;3.10;63.00
83964;DHT22;73994;50.868;5.420;2024-03-08T04:55:47;3.00;63.30
83964;DHT22;73994;50.868;5.420;2024-03-08T04:58:12;3.00;63.20
83964;DHT22;73994;50.868;5.420;2024-03-08T05:00:38;3.00;63.30
83964;DHT22;73994;50.868;5.420;2024-03-08T05:03:04;3.00;63.50
83964;DHT22;73994;50.868;5.420;2024-03-08T05:05:30;3.00;63.20
83964;DHT22;73994;50.868;5.420;2024-03-08T05:07:56;3.00;63.10
83964;DHT22;73994;50.868;5.420;2024-03-08T05:10:22;2.90;63.60
83964;DHT22;73994;50.868;5.420;2024-03-08T05:12:48;2.90;63.40
83964;DHT22;73994;50.868;5.420;2024-03-08T05:15:13;2.90;63.60
83964;DHT22;73994;50.868;5.420;2024-03-08T05:17:40;2.80;63.90
83964;DHT22;73994;50.868;5.420;2024-03-08T05:20:06;2.90;63.70
83964;DHT22;73994;50.868;5.420;2024-03-08T05:22:37;2.90;63.70
83964;DHT22;73994;50.868;5.420;2024-03-08T05:25:03;2.80;63.80
83964;DHT22;73994;50.868;5.420;2024-03-08T05:27:29;2.80;63.60
83964;DHT22;73994;50.868;5.420;2024-03-08T05:29:55;2.80;63.60
83964;DHT22;73994;50.868;5.420;2024-03-08T05:32:20;2.80;63.60
83964;DHT22;73994;50.868;5.420;2024-03-08T05:34:46;2.90;63.40
83964;DHT22;73994;50.868;5.420;2024-03-08T05:37:12;2.80;63.60
83964;DHT22;73994;50.868;5.420;2024-03-08T05:39:38;2.80;63.60
83964;DHT22;73994;50.868;5.420;2024-03-08T05:42:04;2.80;63.70
83964;DHT22;73994;50.868;5.420;2024-03-08T05:44:29;2.80;63.50
83964;DHT22;73994;50.868;5.420;2024-03-08T05:46:56;2.80;63.40
83964;DHT22;73994;50.868;5.420;2024-03-08T05:49:22;2.80;63.40
83964;DHT22;73994;50.868;5.420;2024-03-08T05:51:48;2.80;63.40
83964;DHT22;73994;50.868;5.420;2024-03-08T05:54:13;2.80;63.80
83964;DHT22;73994;50.868;5.420;2024-03-08T05:56:40;2.70;63.70
83964;DHT22;73994;50.868;5.420;2024-03-08T05:59:10;2.70;63.80
83964;DHT22;73994;50.868;5.420;2024-03-08T06:01:36;2.70;63.80
83964;DHT22;73994;50.868;5.420;2024-03-08T06:04:03;2.70;64.00
83964;DHT22;73994;50.868;5.420;2024-03-08T06:06:29;2.70;63.90
83964;DHT22;73994;50.868;5.420;2024-03-08T06:08:55;2.70;64.20
83964;DHT22;73994;50.868;5.420;2024-03-08T06:11:24;2.70;64.10
83964;DHT22;73994;50.868;5.420;2024-03-08T06:13:52;2.70;64.10
83964;DHT22;73994;50.868;5.420;2024-03-08T06:16:25;2.70;63.80
83964;DHT22;73994;50.868;5.420;2024-03-08T06:18:57;2.70;63.90
83964;DHT22;73994;50.868;5.420;2024-03-08T06:21:23;2.70;63.80
83964;DHT22;73994;50.868;5.420;2024-03-08T06:23:55;2.70;64.00
83964;DHT22;73994;50.868;5.420;2024-03-08T06:26:23;2.80;63.90
83964;DHT22;73994;50.868;5.420;2024-03-08T06:28:49;2.70;64.30
83964;DHT22;73994;50.868;5.420;2024-03-08T06:31:16;2.80;64.20
83964;DHT22;73994;50.868;5.420;2024-03-08T06:33:42;2.80;64.00
83964;DHT22;73994;50.868;5.420;2024-03-08T06:36:09;2.80;63.80
83964;DHT22;73994;50.868;5.420;2024-03-08T06:38:34;2.90;63.70
83964;DHT22;73994;50.868;5.420;2024-03-08T06:41:00;2.90;63.70
83964;DHT22;73994;50.868;5.420;2024-03-08T06:43:28;3.00;63.90
83964;DHT22;73994;50.868;5.420;2024-03-08T06:45:59;3.00;63.70
83964;DHT22;73994;50.868;5.420;2024-03-08T06:48:25;3.00;63.80
83964;DHT22;73994;50.868;5.420;2024-03-08T06:50:51;3.10;62.80
83964;DHT22;73994;50.868;5.420;2024-03-08T06:53:16;3.10;63.20
83964;DHT22;73994;50.868;5.420;2024-03-08T06:55:44;3.10;62.80
83964;DHT22;73994;50.868;5.420;2024-03-08T06:58:10;3.20;62.90
83964;DHT22;73994;50.868;5.420;2024-03-08T07:00:37;3.30;62.60
83964;DHT22;73994;50.868;5.420;2024-03-08T07:03:03;3.30;62.50
83964;DHT22;73994;50.868;5.420;2024-03-08T07:05:29;3.30;62.70
83964;DHT22;73994;50.868;5.420;2024-03-08T07:07:56;3.40;62.80
83964;DHT22;73994;50.868;5.420;2024-03-08T07:10:24;3.40;62.50
83964;DHT22;73994;50.868;5.420;2024-03-08T07:12:51;3.50;62.20
83964;DHT22;73994;50.868;5.420;2024-03-08T07:15:18;3.50;62.30
83964;DHT22;73994;50.868;5.420;2024-03-08T07:17:46;3.60;62.00
83964;DHT22;73994;50.868;5.420;2024-03-08T07:20:12;3.60;61.90
83964;DHT22;73994;50.868;5.420;2024-03-08T07:22:39;3.70;62.10
83964;DHT22;73994;50.868;5.420;2024-03-08T07:25:05;3.80;61.90
83964;DHT22;73994;50.868;5.420;2024-03-08T07:27:51;3.90;61.00
83964;DHT22;73994;50.868;5.420;2024-03-08T07:30:22;3.90;61.50
83964;DHT22;73994;50.868;5.420;2024-03-08T07:33:06;3.90;61.80
83964;DHT22;73994;50.868;5.420;2024-03-08T07:35:33;4.00;61.50
83964;DHT22;73994;50.868;5.420;2024-03-08T07:38:08;4.10;61.10
83964;DHT22;73994;50.868;5.420;2024-03-08T07:40:38;4.10;61.10
83964;DHT22;73994;50.868;5.420;2024-03-08T07:43:07;4.20;61.10
83964;DHT22;73994;50.868;5.420;2024-03-08T07:45:33;4.30;60.90
83964;DHT22;73994;50.868;5.420;2024-03-08T07:47:59;4.30;60.70
83964;DHT22;73994;50.868;5.420;2024-03-08T07:50:24;4.40;60.50
83964;DHT22;73994;50.868;5.420;2024-03-08T07:52:50;4.50;60.40
83964;DHT22;73994;50.868;5.420;2024-03-08T07:55:16;4.50;60.40
83964;DHT22;73994;50.868;5.420;2024-03-08T07:57:42;4.50;59.80
83964;DHT22;73994;50.868;5.420;2024-03-08T08:00:10;4.60;59.90
83964;DHT22;73994;50.868;5.420;2024-03-08T08:02:38;4.70;59.60
83964;DHT22;73994;50.868;5.420;2024-03-08T08:05:04;4.70;60.00
83964;DHT22;73994;50.868;5.420;2024-03-08T08:07:30;4.80;59.60
83964;DHT22;73994;50.868;5.420;2024-03-08T08:09:56;5.00;59.90
83964;DHT22;73994;50.868;5.420;2024-03-08T08:12:22;5.00;59.40
83964;DHT22;73994;50.868;5.420;2024-03-08T08:14:48;5.10;58.70
83964;DHT22;73994;50.868;5.420;2024-03-08T08:17:14;5.30;58.90
83964;DHT22;73994;50.868;5.420;2024-03-08T08:19:41;5.40;57.90
83964;DHT22;73994;50.868;5.420;2024-03-08T08:22:07;5.50;57.50
83964;DHT22;73994;50.868;5.420;2024-03-08T08:24:34;5.70;57.40
83964;DHT22;73994;50.868;5.420;2024-03-08T08:27:02;6.00;57.00
83964;DHT22;73994;50.868;5.420;2024-03-08T08:29:28;6.20;57.00
83964;DHT22;73994;50.868;5.420;2024-03-08T08:32:01;6.40;56.20
83964;DHT22;73994;50.868;5.420;2024-03-08T08:34:27;7.00;54.80
83964;DHT22;73994;50.868;5.420;2024-03-08T08:36:53;7.30;54.80
83964;DHT22;73994;50.868;5.420;2024-03-08T08:39:20;7.40;53.60
83964;DHT22;73994;50.868;5.420;2024-03-08T08:41:48;7.40;54.20
83964;DHT22;73994;50.868;5.420;2024-03-08T08:44:14;7.50;54.10
83964;DHT22;73994;50.868;5.420;2024-03-08T08:46:40;7.80;53.30
83964;DHT22;73994;50.868;5.420;2024-03-08T08:49:06;7.80;52.80
83964;DHT22;73994;50.868;5.420;2024-03-08T08:51:36;8.00;52.50
83964;DHT22;73994;50.868;5.420;2024-03-08T08:54:02;8.00;52.80
83964;DHT22;73994;50.868;5.420;2024-03-08T08:56:27;8.20;52.10
83964;DHT22;73994;50.868;5.420;2024-03-08T08:58:54;8.40;51.50
83964;DHT22;73994;50.868;5.420;2024-03-08T09:01:20;8.50;51.50
83964;DHT22;73994;50.868;5.420;2024-03-08T09:03:46;8.60;51.50
83964;DHT22;73994;50.868;5.420;2024-03-08T09:06:16;8.90;50.90
83964;DHT22;73994;50.868;5.420;2024-03-08T09:08:42;9.00;51.50
83964;DHT22;73994;50.868;5.420;2024-03-08T09:11:10;9.20;51.20
83964;DHT22;73994;50.868;5.420;2024-03-08T09:13:35;9.50;50.90
83964;DHT22;73994;50.868;5.420;2024-03-08T09:16:04;9.60;50.20
83964;DHT22;73994;50.868;5.420;2024-03-08T09:18:31;9.80;49.70
83964;DHT22;73994;50.868;5.420;2024-03-08T09:20:58;10.00;49.20
83964;DHT22;73994;50.868;5.420;2024-03-08T09:23:25;10.10;48.90
83964;DHT22;73994;50.868;5.420;2024-03-08T09:25:56;10.30;48.40
83964;DHT22;73994;50.868;5.420;2024-03-08T09:28:23;10.40;47.90
83964;DHT22;73994;50.868;5.420;2024-03-08T09:30:49;10.50;49.10
83964;DHT22;73994;50.868;5.420;2024-03-08T09:33:14;10.90;48.40
83964;DHT22;73994;50.868;5.420;2024-03-08T09:35:47;11.10;48.10
83964;DHT22;73994;50.868;5.420;2024-03-08T09:38:14;11.30;47.40
83964;DHT22;73994;50.868;5.420;2024-03-08T09:40:43;11.50;46.90
83964;DHT22;73994;50.868;5.420;2024-03-08T09:43:12;11.70;46.90
83964;DHT22;73994;50.868;5.420;2024-03-08T09:45:38;11.90;46.50
83964;DHT22;73994;50.868;5.420;2024-03-08T09:48:13;11.90;46.00
83964;DHT22;73994;50.868;5.420;2024-03-08T09:50:42;12.00;45.90
83964;DHT22;73994;50.868;5.420;2024-03-08T09:53:09;12.10;46.00
83964;DHT22;73994;50.868;5.420;2024-03-08T09:55:37;12.50;45.50
83964;DHT22;73994;50.868;5.420;2024-03-08T09:58:06;12.70;45.00
83964;DHT22;73994;50.868;5.420;2024-03-08T10:00:52;12.90;44.50
83964;DHT22;73994;50.868;5.420;2024-03-08T10:03:19;13.00;45.20
83964;DHT22;73994;50.868;5.420;2024-03-08T10:05:45;13.20;44.20
83964;DHT22;73994;50.868;5.420;2024-03-08T10:08:12;13.50;45.40
83964;DHT22;73994;50.868;5.420;2024-03-08T10:10:39;13.70;44.40
83964;DHT22;73994;50.868;5.420;2024-03-08T10:13:08;13.90;43.70
83964;DHT22;73994;50.868;5.420;2024-03-08T10:15:35;14.10;43.10
83964;DHT22;73994;50.868;5.420;2024-03-08T10:18:01;14.20;43.20
83964;DHT22;73994;50.868;5.420;2024-03-08T10:20:30;14.50;43.40
83964;DHT22;73994;50.868;5.420;2024-03-08T10:23:03;14.80;43.60
83964;DHT22;73994;50.868;5.420;2024-03-08T10:25:33;15.00;43.30
83964;DHT22;73994;50.868;5.420;2024-03-08T10:28:00;15.40;42.10
83964;DHT22;73994;50.868;5.420;2024-03-08T10:30:29;15.60;42.60
83964;DHT22;73994;50.868;5.420;2024-03-08T10:32:55;15.90;42.20
83964;DHT22;73994;50.868;5.420;2024-03-08T10:35:22;16.10;41.80
83964;DHT22;73994;50.868;5.420;2024-03-08T10:37:49;16.50;41.00
83964;DHT22;73994;50.868;5.420;2024-03-08T10:40:19;17.00;41.20
83964;DHT22;73994;50.868;5.420;2024-03-08T10:42:55;17.80;40.40
83964;DHT22;73994;50.868;5.420;2024-03-08T10:45:37;19.90;37.80
83964;DHT22;73994;50.868;5.420;2024-03-08T10:50:42;24.20;34.50
83964;DHT22;73994;50.868;5.420;2024-03-08T10:53:11;26.20;33.30
83964;DHT22;73994;50.868;5.420;2024-03-08T10:55:40;27.80;31.80
83964;DHT22;73994;50.868;5.420;2024-03-08T10:58:06;28.90;30.70
83964;DHT22;73994;50.868;5.420;2024-03-08T11:00:34;29.50;29.90
83964;DHT22;73994;50.868;5.420;2024-03-08T11:03:00;30.30;29.80
83964;DHT22;73994;50.868;5.420;2024-03-08T11:05:41;31.00;29.60
83964;DHT22;73994;50.868;5.420;2024-03-08T11:08:17;31.60;28.90
83964;DHT22;73994;50.868;5.420;2024-03-08T11:10:53;32.10;28.40
83964;DHT22;73994;50.868;5.420;2024-03-08T11:16:00;33.10;27.70
83964;DHT22;73994;50.868;5.420;2024-03-08T11:18:26;33.60;27.90
83964;DHT22;73994;50.868;5.420;2024-03-08T11:20:55;34.30;27.50
83964;DHT22;73994;50.868;5.420;2024-03-08T11:23:23;34.70;27.20
83964;DHT22;73994;50.868;5.420;2024-03-08T11:25:49;35.20;26.90
83964;DHT22;73994;50.868;5.420;2024-03-08T11:28:21;35.90;26.70
83964;DHT22;73994;50.868;5.420;2024-03-08T11:33:34;36.50;26.60
83964;DHT22;73994;50.868;5.420;2024-03-08T11:36:09;37.20;26.20
83964;DHT22;73994;50.868;5.420;2024-03-08T11:38:43;37.80;26.00
83964;DHT22;73994;50.868;5.420;2024-03-08T11:41:17;38.60;25.50
83964;DHT22;73994;50.868;5.420;2024-03-08T11:43:43;39.30;25.50
83964;DHT22;73994;50.868;5.420;2024-03-08T11:46:13;39.50;25.00
83964;DHT22;73994;50.868;5.420;2024-03-08T11:48:42;39.70;24.90
83964;DHT22;73994;50.868;5.420;2024-03-08T11:51:12;39.90;24.70
83964;DHT22;73994;50.868;5.420;2024-03-08T11:53:39;39.90;24.50
83964;DHT22;73994;50.868;5.420;2024-03-08T11:56:10;40.20;24.40
83964;DHT22;73994;50.868;5.420;2024-03-08T11:58:37;40.50;24.60
83964;DHT22;73994;50.868;5.420;2024-03-08T12:01:07;41.10;24.50
83964;DHT22;73994;50.868;5.420;2024-03-08T12:03:43;41.60;23.90
83964;DHT22;73994;50.868;5.420;2024-03-08T12:06:12;42.00;23.90
83964;DHT22;73994;50.868;5.420;2024-03-08T12:08:40;42.50;23.30
83964;DHT22;73994;50.868;5.420;2024-03-08T12:11:07;42.80;23.40
83964;DHT22;73994;50.868;5.420;2024-03-08T12:13:35;43.30;23.20
83964;DHT22;73994;50.868;5.420;2024-03-08T12:16:04;43.50;23.30
83964;DHT22;73994;50.868;5.420;2024-03-08T12:18:34;44.00;22.70
83964;DHT22;73994;50.868;5.420;2024-03-08T12:21:08;44.30;22.60
83964;DHT22;73994;50.868;5.420;2024-03-08T12:23:34;44.50;22.60
83964;DHT22;73994;50.868;5.420;2024-03-08T12:26:24;44.70;22.60
83964;DHT22;73994;50.868;5.420;2024-03-08T12:28:51;45.10;22.60
83964;DHT22;73994;50.868;5.420;2024-03-08T12:31:17;45.30;22.20
83964;DHT22;73994;50.868;5.420;2024-03-08T12:36:16;45.90;21.90
83964;DHT22;73994;50.868;5.420;2024-03-08T12:38:45;46.40;21.80
83964;DHT22;73994;50.868;5.420;2024-03-08T12:41:14;46.50;21.70
83964;DHT22;73994;50.868;5.420;2024-03-08T12:43:41;46.40;21.60
83964;DHT22;73994;50.868;5.420;2024-03-08T12:46:07;46.40;21.70
83964;DHT22;73994;50.868;5.420;2024-03-08T12:48:37;46.70;21.90
83964;DHT22;73994;50.868;5.420;2024-03-08T12:51:06;47.40;21.60
83964;DHT22;73994;50.868;5.420;2024-03-08T12:53:33;47.90;21.30
83964;DHT22;73994;50.868;5.420;2024-03-08T12:55:58;48.10;21.20
83964;DHT22;73994;50.868;5.420;2024-03-08T12:58:24;48.30;21.60
83964;DHT22;73994;50.868;5.420;2024-03-08T13:00:51;48.80;21.00
83964;DHT22;73994;50.868;5.420;2024-03-08T13:03:17;48.90;20.90
83964;DHT22;73994;50.868;5.420;2024-03-08T13:05:43;48.80;20.70
83964;DHT22;73994;50.868;5.420;2024-03-08T13:08:09;48.50;21.20
83964;DHT22;73994;50.868;5.420;2024-03-08T13:10:39;48.70;21.10
83964;DHT22;73994;50.868;5.420;2024-03-08T13:13:05;49.00;21.00
83964;DHT22;73994;50.868;5.420;2024-03-08T13:15:30;49.60;21.00
83964;DHT22;73994;50.868;5.420;2024-03-08T13:17:56;49.80;20.60
83964;DHT22;73994;50.868;5.420;2024-03-08T13:20:25;50.00;20.30
83964;DHT22;73994;50.868;5.420;2024-03-08T13:22:54;49.80;20.30
83964;DHT22;73994;50.868;5.420;2024-03-08T13:25:19;49.90;20.50
83964;DHT22;73994;50.868;5.420;2024-03-08T13:27:45;50.10;20.60
83964;DHT22;73994;50.868;5.420;2024-03-08T13:30:13;50.40;20.10
83964;DHT22;73994;50.868;5.420;2024-03-08T13:32:41;50.10;20.20
83964;DHT22;73994;50.868;5.420;2024-03-08T13:35:12;49.80;20.40
83964;DHT22;73994;50.868;5.420;2024-03-08T13:37:39;50.00;20.50
83964;DHT22;73994;50.868;5.420;2024-03-08T13:40:06;50.20;20.40
83964;DHT22;73994;50.868;5.420;2024-03-08T13:42:42;50.00;20.40
83964;DHT22;73994;50.868;5.420;2024-03-08T13:45:09;50.10;20.50
83964;DHT22;73994;50.868;5.420;2024-03-08T13:47:38;50.60;20.20
83964;DHT22;73994;50.868;5.420;2024-03-08T13:50:11;50.70;20.20
83964;DHT22;73994;50.868;5.420;2024-03-08T13:52:43;50.80;20.00
83964;DHT22;73994;50.868;5.420;2024-03-08T13:55:09;50.60;19.90
83964;DHT22;73994;50.868;5.420;2024-03-08T13:57:35;50.20;20.00
83964;DHT22;73994;50.868;5.420;2024-03-08T14:00:02;50.30;20.20
83964;DHT22;73994;50.868;5.420;2024-03-08T14:02:28;50.30;20.10
83964;DHT22;73994;50.868;5.420;2024-03-08T14:04:56;50.40;20.00
83964;DHT22;73994;50.868;5.420;2024-03-08T14:07:23;50.50;20.00
83964;DHT22;73994;50.868;5.420;2024-03-08T14:09:49;50.50;20.20
83964;DHT22;73994;50.868;5.420;2024-03-08T14:12:18;50.80;20.20
83964;DHT22;73994;50.868;5.420;2024-03-08T14:14:44;50.60;20.00
83964;DHT22;73994;50.868;5.420;2024-03-08T14:17:10;50.30;20.20
83964;DHT22;73994;50.868;5.420;2024-03-08T14:19:37;50.00;20.10
83964;DHT22;73994;50.868;5.420;2024-03-08T14:22:04;49.90;20.10
83964;DHT22;73994;50.868;5.420;2024-03-08T14:24:30;49.80;20.40
83964;DHT22;73994;50.868;5.420;2024-03-08T14:26:57;50.00;20.40
83964;DHT22;73994;50.868;5.420;2024-03-08T14:29:25;50.00;19.90
83964;DHT22;73994;50.868;5.420;2024-03-08T14:31:55;49.50;20.30
83964;DHT22;73994;50.868;5.420;2024-03-08T14:34:23;49.30;20.60
83964;DHT22;73994;50.868;5.420;2024-03-08T14:36:52;49.70;20.50
83964;DHT22;73994;50.868;5.420;2024-03-08T14:39:18;49.20;20.30
83964;DHT22;73994;50.868;5.420;2024-03-08T14:41:52;48.90;20.40
83964;DHT22;73994;50.868;5.420;2024-03-08T14:44:22;49.00;20.70
83964;DHT22;73994;50.868;5.420;2024-03-08T14:46:52;49.20;20.40
83964;DHT22;73994;50.868;5.420;2024-03-08T14:49:18;49.10;20.40
83964;DHT22;73994;50.868;5.420;2024-03-08T14:51:45;49.00;20.60
83964;DHT22;73994;50.868;5.420;2024-03-08T14:54:10;49.00;20.50
83964;DHT22;73994;50.868;5.420;2024-03-08T14:56:37;49.10;20.40
83964;DHT22;73994;50.868;5.420;2024-03-08T14:59:03;49.10;20.50
83964;DHT22;73994;50.868;5.420;2024-03-08T15:01:30;48.50;20.60
83964;DHT22;73994;50.868;5.420;2024-03-08T15:03:58;48.10;20.90
83964;DHT22;73994;50.868;5.420;2024-03-08T15:06:40;48.00;20.90
83964;DHT22;73994;50.868;5.420;2024-03-08T15:09:06;47.60;21.10
83964;DHT22;73994;50.868;5.420;2024-03-08T15:11:45;47.60;20.90
83964;DHT22;73994;50.868;5.420;2024-03-08T15:14:11;47.60;21.10
83964;DHT22;73994;50.868;5.420;2024-03-08T15:16:40;47.60;21.10
83964;DHT22;73994;50.868;5.420;2024-03-08T15:19:08;47.30;20.90
83964;DHT22;73994;50.868;5.420;2024-03-08T15:21:34;47.00;21.10
83964;DHT22;73994;50.868;5.420;2024-03-08T15:24:03;46.60;21.20
83964;DHT22;73994;50.868;5.420;2024-03-08T15:26:30;46.30;21.40
83964;DHT22;73994;50.868;5.420;2024-03-08T15:28:57;45.60;21.20
83964;DHT22;73994;50.868;5.420;2024-03-08T15:31:23;44.70;21.60
83964;DHT22;73994;50.868;5.420;2024-03-08T15:33:52;44.20;21.90
83964;DHT22;73994;50.868;5.420;2024-03-08T15:36:26;44.10;22.00
83964;DHT22;73994;50.868;5.420;2024-03-08T15:38:54;44.00;22.00
83964;DHT22;73994;50.868;5.420;2024-03-08T15:41:20;43.80;22.30
83964;DHT22;73994;50.868;5.420;2024-03-08T15:43:46;43.60;22.50
83964;DHT22;73994;50.868;5.420;2024-03-08T15:46:13;43.50;22.40
83964;DHT22;73994;50.868;5.420;2024-03-08T15:48:40;43.50;22.20
83964;DHT22;73994;50.868;5.420;2024-03-08T15:51:08;43.20;22.50
83964;DHT22;73994;50.868;5.420;2024-03-08T15:53:37;42.70;22.50